createdAt,value
2019-05-22T00:00:05.458Z,973.09
2019-05-22T00:01:04.514Z,973.15
2019-05-22T00:02:04.731Z,973.15
2019-05-22T00:03:05.460Z,973.29
2019-05-22T00:04:10.466Z,973.12
2019-05-22T00:05:04.799Z,973.27
2019-05-22T00:06:04.963Z,973.12
2019-05-22T00:07:05.310Z,973.18
2019-05-22T00:08:05.366Z,973.23
2019-05-22T00:09:04.880Z,973.18
2019-05-22T00:10:05.079Z,973.26
2019-05-22T00:11:05.421Z,973.32
2019-05-22T00:12:04.813Z,973.15
2019-05-22T00:13:04.875Z,973.32
2019-05-22T00:14:04.900Z,973.35
2019-05-22T00:15:05.356Z,973.15
2019-05-22T00:16:05.462Z,973.12
2019-05-22T00:17:04.828Z,973.23
2019-05-22T00:18:04.943Z,973.17
2019-05-22T00:19:05.158Z,973.26
2019-05-22T00:20:04.516Z,973.20
2019-05-22T00:21:04.656Z,973.12
2019-05-22T00:22:04.870Z,973.26
2019-05-22T00:23:05.291Z,973.32
2019-05-22T00:24:05.020Z,973.23
2019-05-22T00:25:05.130Z,973.23
2019-05-22T00:26:05.219Z,973.29
2019-05-22T00:27:05.056Z,973.23
2019-05-22T00:28:04.954Z,973.29
2019-05-22T00:29:05.050Z,973.35
2019-05-22T00:30:05.478Z,973.32
2019-05-22T00:31:05.341Z,973.35
2019-05-22T00:32:04.453Z,973.29
2019-05-22T00:33:04.626Z,973.41
2019-05-22T00:34:05.271Z,973.43
2019-05-22T00:35:04.819Z,973.26
2019-05-22T00:36:04.958Z,973.38
2019-05-22T00:37:05.176Z,973.35
2019-05-22T00:38:04.718Z,973.38
2019-05-22T00:39:04.699Z,973.38
2019-05-22T00:40:05.330Z,973.29
2019-05-22T00:41:04.612Z,973.35
2019-05-22T00:42:04.680Z,973.38
2019-05-22T00:43:14.489Z,973.38
2019-05-22T00:44:05.154Z,973.27
2019-05-22T00:45:04.717Z,973.29
2019-05-22T00:46:05.215Z,973.41
2019-05-22T00:47:05.518Z,973.35
2019-05-22T00:48:04.582Z,973.32
2019-05-22T00:49:04.830Z,973.35
2019-05-22T00:50:04.856Z,973.30
2019-05-22T00:51:04.476Z,973.27
2019-05-22T00:52:05.099Z,973.18
2019-05-22T00:53:05.313Z,973.18
2019-05-22T00:54:05.070Z,973.24
2019-05-22T00:55:04.807Z,973.15
2019-05-22T00:56:04.890Z,973.27
2019-05-22T00:57:04.787Z,973.27
2019-05-22T00:58:05.000Z,973.21
2019-05-22T00:59:05.044Z,973.24
2019-05-22T01:00:05.363Z,973.21
2019-05-22T01:01:05.479Z,973.30
2019-05-22T01:02:05.460Z,973.19
2019-05-22T01:03:04.822Z,973.33
2019-05-22T01:04:09.518Z,973.16
2019-05-22T01:05:04.557Z,973.27
2019-05-22T01:06:04.491Z,973.19
2019-05-22T01:07:04.854Z,973.30
2019-05-22T01:08:05.404Z,973.24
2019-05-22T01:09:05.429Z,973.27
2019-05-22T01:10:05.581Z,973.25
2019-05-22T01:11:05.411Z,973.19
2019-05-22T01:12:04.754Z,973.39
2019-05-22T01:13:05.330Z,973.22
2019-05-22T01:14:05.367Z,973.36
2019-05-22T01:15:05.349Z,973.30
2019-05-22T01:16:04.934Z,973.22
2019-05-22T01:17:04.932Z,973.33
2019-05-22T01:18:04.960Z,973.22
2019-05-22T01:19:04.532Z,973.25
2019-05-22T01:20:04.692Z,973.34
2019-05-22T01:21:04.964Z,973.31
2019-05-22T01:22:05.113Z,973.22
2019-05-22T01:23:04.445Z,973.28
2019-05-22T01:24:04.912Z,973.28
2019-05-22T01:25:05.056Z,973.36
2019-05-22T01:26:05.331Z,973.31
2019-05-22T01:27:05.279Z,973.13
2019-05-22T01:28:04.493Z,973.25
2019-05-22T01:29:05.243Z,973.45
2019-05-22T01:30:05.243Z,973.22
2019-05-22T01:31:05.390Z,973.25
2019-05-22T01:32:05.288Z,973.34
2019-05-22T01:33:04.432Z,973.39
2019-05-22T01:34:04.588Z,973.42
2019-05-22T01:35:05.018Z,973.42
2019-05-22T01:36:05.105Z,973.28
2019-05-22T01:37:05.064Z,973.37
2019-05-22T01:38:05.181Z,973.45
2019-05-22T01:39:04.703Z,973.34
2019-05-22T01:40:04.883Z,973.22
2019-05-22T01:41:05.354Z,973.22
2019-05-22T01:42:04.476Z,973.31
2019-05-22T01:43:04.883Z,973.31
2019-05-22T01:44:04.817Z,973.37
2019-05-22T01:45:07.169Z,973.22
2019-05-22T01:46:04.901Z,973.31
2019-05-22T01:47:04.966Z,973.22
2019-05-22T01:48:05.423Z,973.40
2019-05-22T01:49:10.431Z,973.25
2019-05-22T01:50:04.911Z,973.34
2019-05-22T01:51:04.968Z,973.34
2019-05-22T01:52:05.265Z,973.45
2019-05-22T01:53:04.736Z,973.25
2019-05-22T01:54:04.798Z,973.45
2019-05-22T01:55:04.846Z,973.34
2019-05-22T01:56:05.165Z,973.25
2019-05-22T01:57:05.120Z,973.40
2019-05-22T01:58:04.595Z,973.42
2019-05-22T01:59:04.589Z,973.40
2019-05-22T02:00:04.719Z,973.37
2019-05-22T02:01:04.730Z,973.45
2019-05-22T02:02:04.957Z,973.42
2019-05-22T02:03:04.887Z,973.37
2019-05-22T02:04:05.060Z,973.54
2019-05-22T02:05:05.427Z,973.43
2019-05-22T02:06:04.532Z,973.43
2019-05-22T02:07:04.460Z,973.43
2019-05-22T02:08:05.072Z,973.37
2019-05-22T02:09:05.412Z,973.40
2019-05-22T02:10:05.396Z,973.52
2019-05-22T02:11:04.930Z,973.40
2019-05-22T02:12:04.874Z,973.49
2019-05-22T02:13:04.469Z,973.43
2019-05-22T02:14:05.090Z,973.35
2019-05-22T02:15:04.660Z,973.40
2019-05-22T02:16:04.828Z,973.46
2019-05-22T02:17:05.053Z,973.43
2019-05-22T02:18:05.197Z,973.49
2019-05-22T02:19:04.860Z,973.40
2019-05-22T02:20:05.029Z,973.43
2019-05-22T02:21:05.539Z,973.52
2019-05-22T02:22:04.493Z,973.46
2019-05-22T02:23:04.960Z,973.54
2019-05-22T02:24:05.021Z,973.49
2019-05-22T02:25:04.446Z,973.57
2019-05-22T02:26:05.450Z,973.54
2019-05-22T02:27:04.959Z,973.52
2019-05-22T02:28:04.993Z,973.60
2019-05-22T02:29:05.173Z,973.57
2019-05-22T02:30:04.842Z,973.49
2019-05-22T02:31:05.190Z,973.52
2019-05-22T02:32:05.214Z,973.60
2019-05-22T02:33:04.549Z,973.50
2019-05-22T02:34:04.555Z,973.54
2019-05-22T02:35:04.754Z,973.53
2019-05-22T02:36:04.911Z,973.60
2019-05-22T02:37:05.270Z,973.60
2019-05-22T02:38:04.591Z,973.83
2019-05-22T02:39:04.625Z,973.58
2019-05-22T02:40:04.827Z,973.61
2019-05-22T02:41:05.075Z,973.61
2019-05-22T02:42:05.201Z,973.64
2019-05-22T02:43:05.434Z,973.53
2019-05-22T02:44:10.058Z,973.58
2019-05-22T02:45:05.389Z,973.67
2019-05-22T02:46:04.434Z,973.58
2019-05-22T02:47:20.882Z,973.48
2019-05-22T02:48:05.021Z,973.64
2019-05-22T02:49:04.514Z,973.76
2019-05-22T02:50:04.664Z,973.76
2019-05-22T02:51:04.956Z,973.73
2019-05-22T02:52:05.003Z,973.65
2019-05-22T02:53:05.086Z,973.48
2019-05-22T02:54:05.063Z,973.56
2019-05-22T02:55:04.567Z,973.76
2019-05-22T02:56:04.535Z,973.73
2019-05-22T02:57:04.772Z,973.73
2019-05-22T02:58:04.901Z,973.73
2019-05-22T02:59:05.543Z,973.79
2019-05-22T03:00:04.849Z,973.70
2019-05-22T03:01:04.795Z,973.73
2019-05-22T03:02:05.363Z,973.79
2019-05-22T03:03:04.765Z,973.73
2019-05-22T03:04:04.824Z,973.85
2019-05-22T03:05:04.822Z,973.79
2019-05-22T03:06:04.903Z,973.68
2019-05-22T03:07:04.795Z,973.88
2019-05-22T03:08:05.203Z,973.80
2019-05-22T03:09:05.411Z,973.80
2019-05-22T03:10:05.469Z,973.80
2019-05-22T03:11:04.523Z,973.83
2019-05-22T03:12:05.006Z,973.77
2019-05-22T03:13:05.267Z,973.86
2019-05-22T03:14:04.815Z,973.71
2019-05-22T03:15:04.931Z,973.80
2019-05-22T03:16:04.949Z,973.77
2019-05-22T03:17:05.401Z,973.77
2019-05-22T03:18:04.955Z,973.74
2019-05-22T03:19:09.448Z,973.83
2019-05-22T03:20:05.104Z,973.97
2019-05-22T03:21:05.349Z,973.89
2019-05-22T03:22:05.167Z,973.95
2019-05-22T03:23:04.754Z,973.83
2019-05-22T03:24:04.809Z,973.83
2019-05-22T03:25:04.923Z,973.92
2019-05-22T03:26:05.071Z,973.95
2019-05-22T03:27:04.448Z,973.89
2019-05-22T03:28:05.114Z,973.89
2019-05-22T03:29:04.578Z,974.01
2019-05-22T03:30:05.301Z,973.98
2019-05-22T03:31:04.739Z,974.06
2019-05-22T03:32:04.562Z,973.92
2019-05-22T03:33:05.128Z,973.98
2019-05-22T03:34:04.530Z,973.95
2019-05-22T03:35:05.167Z,973.98
2019-05-22T03:36:05.160Z,973.89
2019-05-22T03:37:04.754Z,973.95
2019-05-22T03:38:04.625Z,974.04
2019-05-22T03:39:04.803Z,974.01
2019-05-22T03:40:04.797Z,974.01
2019-05-22T03:41:04.990Z,973.93
2019-05-22T03:42:05.122Z,974.04
2019-05-22T03:43:05.499Z,973.98
2019-05-22T03:44:10.539Z,973.98
2019-05-22T03:45:04.947Z,973.98
2019-05-22T03:46:05.005Z,974.04
2019-05-22T03:47:04.671Z,973.98
2019-05-22T03:48:04.635Z,973.96
2019-05-22T03:49:04.656Z,974.18
2019-05-22T03:50:04.842Z,974.04
2019-05-22T03:51:04.515Z,974.13
2019-05-22T03:52:04.647Z,974.13
2019-05-22T03:53:04.709Z,974.13
2019-05-22T03:54:05.010Z,974.10
2019-05-22T03:55:04.483Z,974.22
2019-05-22T03:56:05.136Z,974.19
2019-05-22T03:57:05.155Z,974.22
2019-05-22T03:58:04.570Z,974.16
2019-05-22T03:59:04.830Z,974.33
2019-05-22T04:00:05.330Z,974.24
2019-05-22T04:01:04.607Z,974.16
2019-05-22T04:02:05.052Z,974.19
2019-05-22T04:03:05.453Z,974.27
2019-05-22T04:04:05.368Z,974.30
2019-05-22T04:05:04.924Z,974.27
2019-05-22T04:06:04.998Z,974.33
2019-05-22T04:07:04.970Z,974.27
2019-05-22T04:08:05.129Z,974.27
2019-05-22T04:09:05.175Z,974.16
2019-05-22T04:10:05.382Z,974.30
2019-05-22T04:11:05.367Z,974.16
2019-05-22T04:12:05.481Z,974.27
2019-05-22T04:13:04.585Z,974.36
2019-05-22T04:14:04.914Z,974.18
2019-05-22T04:15:05.367Z,974.27
2019-05-22T04:16:04.898Z,974.27
2019-05-22T04:17:04.943Z,974.38
2019-05-22T04:18:05.342Z,974.44
2019-05-22T04:19:05.071Z,974.36
2019-05-22T04:20:04.978Z,974.33
2019-05-22T04:21:05.276Z,974.38
2019-05-22T04:22:04.834Z,974.56
2019-05-22T04:23:05.090Z,974.44
2019-05-22T04:24:04.785Z,974.38
2019-05-22T04:25:05.571Z,974.41
2019-05-22T04:26:04.757Z,974.38
2019-05-22T04:27:04.690Z,974.33
2019-05-22T04:28:05.191Z,974.44
2019-05-22T04:29:04.642Z,974.41
2019-05-22T04:30:05.243Z,974.35
2019-05-22T04:31:04.781Z,974.47
2019-05-22T04:32:05.100Z,974.50
2019-05-22T04:33:04.765Z,974.50
2019-05-22T04:34:04.609Z,974.52
2019-05-22T04:35:04.852Z,974.38
2019-05-22T04:36:05.022Z,974.50
2019-05-22T04:37:05.386Z,974.49
2019-05-22T04:38:04.647Z,974.49
2019-05-22T04:39:05.061Z,974.41
2019-05-22T04:40:05.139Z,974.49
2019-05-22T04:41:05.107Z,974.49
2019-05-22T04:42:05.221Z,974.52
2019-05-22T04:43:04.858Z,974.67
2019-05-22T04:44:04.833Z,974.47
2019-05-22T04:45:04.966Z,974.61
2019-05-22T04:46:04.980Z,974.52
2019-05-22T04:47:05.142Z,974.58
2019-05-22T04:48:05.042Z,974.47
2019-05-22T04:49:05.061Z,974.64
2019-05-22T04:50:08.417Z,974.55
2019-05-22T04:51:05.021Z,974.52
2019-05-22T04:52:04.706Z,974.64
2019-05-22T04:53:05.106Z,974.70
2019-05-22T04:54:04.548Z,974.58
2019-05-22T04:55:04.834Z,974.64
2019-05-22T04:56:05.386Z,974.67
2019-05-22T04:57:09.516Z,974.58
2019-05-22T04:58:04.903Z,974.50
2019-05-22T04:59:05.846Z,974.61
2019-05-22T05:00:04.665Z,974.55
2019-05-22T05:01:05.159Z,974.64
2019-05-22T05:02:05.246Z,974.75
2019-05-22T05:03:05.305Z,974.67
2019-05-22T05:04:04.918Z,974.52
2019-05-22T05:05:05.185Z,974.55
2019-05-22T05:06:07.409Z,974.61
2019-05-22T05:07:05.140Z,974.73
2019-05-22T05:08:05.141Z,974.75
2019-05-22T05:09:05.211Z,974.70
2019-05-22T05:10:05.430Z,974.67
2019-05-22T05:11:04.562Z,974.67
2019-05-22T05:12:04.617Z,974.73
2019-05-22T05:13:05.188Z,974.75
2019-05-22T05:14:04.962Z,974.78
2019-05-22T05:15:05.094Z,974.78
2019-05-22T05:16:05.163Z,974.76
2019-05-22T05:17:10.197Z,974.87
2019-05-22T05:18:04.565Z,974.95
2019-05-22T05:19:04.965Z,974.73
2019-05-22T05:20:04.568Z,974.93
2019-05-22T05:21:04.777Z,974.90
2019-05-22T05:22:04.722Z,974.79
2019-05-22T05:23:04.839Z,974.90
2019-05-22T05:24:04.864Z,974.93
2019-05-22T05:25:04.988Z,974.82
2019-05-22T05:26:05.417Z,974.87
2019-05-22T05:27:05.433Z,974.90
2019-05-22T05:28:04.923Z,975.01
2019-05-22T05:29:05.228Z,974.87
2019-05-22T05:30:06.912Z,974.95
2019-05-22T05:31:05.380Z,974.90
2019-05-22T05:32:04.752Z,974.95
2019-05-22T05:33:04.744Z,974.90
2019-05-22T05:34:05.013Z,974.90
2019-05-22T05:35:05.302Z,974.73
2019-05-22T05:36:04.809Z,974.95
2019-05-22T05:37:05.045Z,974.87
2019-05-22T05:38:05.116Z,974.98
2019-05-22T05:39:05.111Z,974.93
2019-05-22T05:40:04.750Z,974.95
2019-05-22T05:41:04.687Z,974.93
2019-05-22T05:42:05.402Z,974.98
2019-05-22T05:43:04.961Z,974.98
2019-05-22T05:44:10.589Z,974.90
2019-05-22T05:45:05.107Z,975.12
2019-05-22T05:46:05.278Z,974.95
2019-05-22T05:47:04.730Z,974.98
2019-05-22T05:48:05.052Z,975.00
2019-05-22T05:49:05.317Z,974.93
2019-05-22T05:50:05.039Z,975.03
2019-05-22T05:51:06.404Z,975.09
2019-05-22T05:52:04.692Z,975.12
2019-05-22T05:53:04.950Z,974.97
2019-05-22T05:54:05.095Z,975.00
2019-05-22T05:55:04.779Z,975.12
2019-05-22T05:56:05.095Z,975.12
2019-05-22T05:57:05.160Z,975.14
2019-05-22T05:58:05.165Z,975.17
2019-05-22T05:59:05.247Z,975.20
2019-05-22T06:00:05.065Z,975.17
2019-05-22T06:01:05.506Z,975.17
2019-05-22T06:02:04.943Z,975.23
2019-05-22T06:03:05.171Z,975.11
2019-05-22T06:04:04.750Z,975.14
2019-05-22T06:05:09.904Z,975.17
2019-05-22T06:06:05.260Z,975.19
2019-05-22T06:07:05.263Z,975.02
2019-05-22T06:08:04.919Z,975.11
2019-05-22T06:09:04.958Z,975.05
2019-05-22T06:10:05.001Z,974.96
2019-05-22T06:11:05.159Z,975.05
2019-05-22T06:12:06.249Z,975.11
2019-05-22T06:13:05.129Z,975.02
2019-05-22T06:14:04.967Z,974.96
2019-05-22T06:15:05.332Z,975.10
2019-05-22T06:16:04.999Z,975.13
2019-05-22T06:17:05.241Z,975.05
2019-05-22T06:18:08.612Z,975.22
2019-05-22T06:19:04.887Z,975.30
2019-05-22T06:20:05.008Z,975.25
2019-05-22T06:21:05.257Z,975.13
2019-05-22T06:22:04.786Z,975.25
2019-05-22T06:23:05.407Z,975.25
2019-05-22T06:24:04.612Z,975.19
2019-05-22T06:25:05.422Z,975.25
2019-05-22T06:26:04.817Z,975.27
2019-05-22T06:27:05.028Z,975.33
2019-05-22T06:28:04.981Z,975.27
2019-05-22T06:29:05.297Z,975.27
2019-05-22T06:30:04.769Z,975.24
2019-05-22T06:31:04.818Z,975.37
2019-05-22T06:32:05.410Z,975.30
2019-05-22T06:33:04.685Z,975.21
2019-05-22T06:34:04.507Z,975.46
2019-05-22T06:35:04.998Z,975.34
2019-05-22T06:36:04.537Z,975.40
2019-05-22T06:37:04.975Z,975.57
2019-05-22T06:38:05.154Z,975.51
2019-05-22T06:39:04.900Z,975.43
2019-05-22T06:40:05.508Z,975.42
2019-05-22T06:41:04.591Z,975.57
2019-05-22T06:42:04.644Z,975.51
2019-05-22T06:43:05.104Z,975.40
2019-05-22T06:44:10.553Z,975.48
2019-05-22T06:45:05.580Z,975.40
2019-05-22T06:46:04.776Z,975.54
2019-05-22T06:47:05.135Z,975.54
2019-05-22T06:48:04.746Z,975.60
2019-05-22T06:49:04.828Z,975.57
2019-05-22T06:50:05.104Z,975.60
2019-05-22T06:51:19.811Z,975.54
2019-05-22T06:52:04.570Z,975.57
2019-05-22T06:53:10.449Z,975.48
2019-05-22T06:54:05.089Z,975.39
2019-05-22T06:55:05.148Z,975.51
2019-05-22T06:56:04.880Z,975.34
2019-05-22T06:57:05.136Z,975.45
2019-05-22T06:58:05.508Z,975.48
2019-05-22T06:59:04.912Z,975.51
2019-05-22T07:00:15.117Z,975.48
2019-05-22T07:01:05.213Z,975.48
2019-05-22T07:02:05.320Z,975.51
2019-05-22T07:03:05.291Z,975.39
2019-05-22T07:04:04.628Z,975.51
2019-05-22T07:05:04.745Z,975.65
2019-05-22T07:06:05.179Z,975.48
2019-05-22T07:07:04.882Z,975.62
2019-05-22T07:08:04.543Z,975.42
2019-05-22T07:09:04.960Z,975.65
2019-05-22T07:10:05.081Z,975.59
2019-05-22T07:11:05.219Z,975.56
2019-05-22T07:12:04.884Z,975.53
2019-05-22T07:13:04.651Z,975.59
2019-05-22T07:14:05.247Z,975.48
2019-05-22T07:15:04.871Z,975.56
2019-05-22T07:16:05.020Z,975.53
2019-05-22T07:17:06.814Z,975.53
2019-05-22T07:18:04.703Z,975.51
2019-05-22T07:19:04.748Z,975.56
2019-05-22T07:20:05.200Z,975.48
2019-05-22T07:21:05.221Z,975.56
2019-05-22T07:22:04.908Z,975.59
2019-05-22T07:23:04.811Z,975.56
2019-05-22T07:24:04.908Z,975.65
2019-05-22T07:25:05.042Z,975.62
2019-05-22T07:26:04.863Z,975.59
2019-05-22T07:27:04.935Z,975.73
2019-05-22T07:28:04.620Z,975.53
2019-05-22T07:29:05.623Z,975.62
2019-05-22T07:30:05.673Z,975.68
2019-05-22T07:31:04.830Z,975.59
2019-05-22T07:32:05.031Z,975.74
2019-05-22T07:33:04.503Z,975.65
2019-05-22T07:34:04.810Z,975.62
2019-05-22T07:35:05.056Z,975.68
2019-05-22T07:36:16.866Z,975.65
2019-05-22T07:37:04.981Z,975.62
2019-05-22T07:38:04.596Z,975.71
2019-05-22T07:39:05.338Z,975.79
2019-05-22T07:40:04.884Z,975.65
2019-05-22T07:41:05.022Z,975.65
2019-05-22T07:42:05.437Z,975.79
2019-05-22T07:43:04.711Z,975.68
2019-05-22T07:44:09.958Z,975.67
2019-05-22T07:45:05.269Z,975.73
2019-05-22T07:46:04.518Z,975.82
2019-05-22T07:47:04.705Z,975.67
2019-05-22T07:48:05.506Z,975.76
2019-05-22T07:49:04.736Z,975.70
2019-05-22T07:50:05.115Z,975.75
2019-05-22T07:51:04.732Z,975.81
2019-05-22T07:52:05.559Z,975.72
2019-05-22T07:53:04.585Z,975.69
2019-05-22T07:54:04.629Z,975.72
2019-05-22T07:55:04.754Z,975.84
2019-05-22T07:56:05.409Z,975.81
2019-05-22T07:57:04.617Z,975.75
2019-05-22T07:58:04.654Z,975.86
2019-05-22T07:59:05.102Z,975.89
2019-05-22T08:00:05.022Z,975.89
2019-05-22T08:01:05.184Z,975.92
2019-05-22T08:02:05.192Z,975.98
2019-05-22T08:03:04.802Z,975.83
2019-05-22T08:04:05.484Z,975.92
2019-05-22T08:05:05.254Z,975.92
2019-05-22T08:06:05.297Z,975.83
2019-05-22T08:07:04.666Z,975.92
2019-05-22T08:08:05.174Z,975.95
2019-05-22T08:09:05.330Z,975.92
2019-05-22T08:10:05.325Z,975.95
2019-05-22T08:11:04.852Z,975.98
2019-05-22T08:12:04.517Z,975.89
2019-05-22T08:13:05.091Z,975.92
2019-05-22T08:14:05.107Z,976.01
2019-05-22T08:15:04.557Z,975.86
2019-05-22T08:16:05.083Z,975.81
2019-05-22T08:17:05.282Z,975.78
2019-05-22T08:18:04.813Z,975.87
2019-05-22T08:19:05.396Z,976.01
2019-05-22T08:20:04.802Z,975.84
2019-05-22T08:21:05.128Z,975.78
2019-05-22T08:22:10.516Z,975.93
2019-05-22T08:23:04.981Z,975.87
2019-05-22T08:24:05.215Z,975.87
2019-05-22T08:25:05.503Z,975.96
2019-05-22T08:26:05.430Z,975.90
2019-05-22T08:27:04.966Z,975.96
2019-05-22T08:28:05.021Z,975.84
2019-05-22T08:29:05.576Z,975.99
2019-05-22T08:30:04.590Z,976.10
2019-05-22T08:31:04.919Z,975.85
2019-05-22T08:32:04.878Z,975.99
2019-05-22T08:33:04.487Z,975.96
2019-05-22T08:34:05.091Z,976.02
2019-05-22T08:35:05.036Z,976.02
2019-05-22T08:36:05.188Z,975.99
2019-05-22T08:37:05.143Z,976.02
2019-05-22T08:38:04.719Z,976.07
2019-05-22T08:39:05.143Z,976.01
2019-05-22T08:40:05.499Z,976.13
2019-05-22T08:41:05.599Z,976.10
2019-05-22T08:42:04.512Z,975.95
2019-05-22T08:43:04.920Z,976.12
2019-05-22T08:44:17.388Z,976.12
2019-05-22T08:45:05.452Z,976.09
2019-05-22T08:46:05.140Z,976.12
2019-05-22T08:47:05.286Z,976.09
2019-05-22T08:48:04.749Z,976.04
2019-05-22T08:49:04.857Z,976.18
2019-05-22T08:50:05.148Z,976.18
2019-05-22T08:51:05.310Z,976.12
2019-05-22T08:52:05.380Z,976.15
2019-05-22T08:53:05.137Z,976.06
2019-05-22T08:54:06.409Z,976.06
2019-05-22T08:55:05.104Z,976.20
2019-05-22T08:56:09.538Z,976.14
2019-05-22T08:57:05.016Z,976.17
2019-05-22T08:58:04.999Z,976.20
2019-05-22T08:59:20.337Z,976.11
2019-05-22T09:00:04.985Z,976.17
2019-05-22T09:01:04.588Z,976.20
2019-05-22T09:02:05.213Z,976.19
2019-05-22T09:03:04.932Z,976.22
2019-05-22T09:04:04.981Z,976.19
2019-05-22T09:05:05.331Z,976.28
2019-05-22T09:06:05.538Z,976.33
2019-05-22T09:07:04.587Z,976.27
2019-05-22T09:08:04.916Z,976.30
2019-05-22T09:09:05.253Z,976.16
2019-05-22T09:10:05.405Z,976.16
2019-05-22T09:11:05.094Z,976.27
2019-05-22T09:12:05.287Z,976.19
2019-05-22T09:13:05.323Z,976.31
2019-05-22T09:14:05.454Z,976.25
2019-05-22T09:15:04.950Z,976.31
2019-05-22T09:16:04.929Z,976.45
2019-05-22T09:17:05.434Z,976.54
2019-05-22T09:18:05.351Z,976.46
2019-05-22T09:19:05.473Z,976.48
2019-05-22T09:20:05.226Z,976.43
2019-05-22T09:21:04.824Z,976.43
2019-05-22T09:22:04.793Z,976.55
2019-05-22T09:23:05.409Z,976.52
2019-05-22T09:24:05.501Z,976.58
2019-05-22T09:25:05.583Z,976.49
2019-05-22T09:26:04.794Z,976.67
2019-05-22T09:27:05.585Z,976.61
2019-05-22T09:28:04.648Z,976.64
2019-05-22T09:29:04.669Z,976.58
2019-05-22T09:30:05.210Z,976.58
2019-05-22T09:31:06.083Z,976.67
2019-05-22T09:32:05.232Z,976.64
2019-05-22T09:33:04.815Z,976.64
2019-05-22T09:34:04.914Z,976.70
2019-05-22T09:35:04.673Z,976.73
2019-05-22T09:36:04.798Z,976.67
2019-05-22T09:37:05.106Z,976.67
2019-05-22T09:38:04.826Z,976.67
2019-05-22T09:39:05.095Z,976.55
2019-05-22T09:40:05.301Z,976.61
2019-05-22T09:41:04.771Z,976.61
2019-05-22T09:42:05.089Z,976.74
2019-05-22T09:43:05.307Z,976.66
2019-05-22T09:44:04.783Z,976.63
2019-05-22T09:45:05.010Z,976.61
2019-05-22T09:46:05.372Z,976.74
2019-05-22T09:47:04.559Z,976.74
2019-05-22T09:48:04.635Z,976.55
2019-05-22T09:49:05.240Z,976.60
2019-05-22T09:50:04.660Z,976.77
2019-05-22T09:51:04.715Z,976.74
2019-05-22T09:52:05.463Z,976.74
2019-05-22T09:53:04.946Z,976.58
2019-05-22T09:54:05.327Z,976.80
2019-05-22T09:55:04.957Z,976.72
2019-05-22T09:56:05.253Z,976.80
2019-05-22T09:57:05.003Z,976.80
2019-05-22T09:58:04.991Z,976.80
2019-05-22T09:59:05.389Z,976.89
2019-05-22T10:00:05.254Z,976.83
2019-05-22T10:01:05.460Z,976.80
2019-05-22T10:02:04.616Z,976.83
2019-05-22T10:03:04.730Z,976.89
2019-05-22T10:04:09.939Z,976.86
2019-05-22T10:05:05.478Z,976.83
2019-05-22T10:06:05.051Z,976.83
2019-05-22T10:07:05.317Z,976.89
2019-05-22T10:08:04.688Z,976.97
2019-05-22T10:09:05.026Z,976.89
2019-05-22T10:10:04.621Z,976.95
2019-05-22T10:11:04.501Z,977.00
2019-05-22T10:12:05.245Z,977.00
2019-05-22T10:13:05.333Z,977.09
2019-05-22T10:14:04.875Z,977.12
2019-05-22T10:15:05.592Z,977.15
2019-05-22T10:16:04.524Z,977.18
2019-05-22T10:17:04.674Z,977.18
2019-05-22T10:18:05.360Z,977.01
2019-05-22T10:19:05.307Z,977.12
2019-05-22T10:20:04.749Z,977.18
2019-05-22T10:21:04.701Z,977.18
2019-05-22T10:22:05.455Z,976.98
2019-05-22T10:23:16.459Z,977.27
2019-05-22T10:24:04.990Z,977.01
2019-05-22T10:25:17.057Z,977.06
2019-05-22T10:26:04.926Z,977.15
2019-05-22T10:27:05.220Z,977.20
2019-05-22T10:28:05.387Z,977.06
2019-05-22T10:29:05.033Z,977.26
2019-05-22T10:30:05.539Z,977.15
2019-05-22T10:31:05.127Z,977.17
2019-05-22T10:32:05.052Z,977.23
2019-05-22T10:33:05.398Z,977.23
2019-05-22T10:34:05.257Z,977.20
2019-05-22T10:35:05.721Z,977.23
2019-05-22T10:36:04.745Z,977.29
2019-05-22T10:37:05.061Z,977.18
2019-05-22T10:38:05.310Z,977.20
2019-05-22T10:39:05.343Z,977.20
2019-05-22T10:40:04.710Z,977.15
2019-05-22T10:41:05.648Z,977.26
2019-05-22T10:42:04.724Z,977.26
2019-05-22T10:43:05.196Z,977.26
2019-05-22T10:44:09.608Z,977.17
2019-05-22T10:45:05.056Z,977.17
2019-05-22T10:46:04.767Z,977.29
2019-05-22T10:47:05.018Z,977.38
2019-05-22T10:48:04.995Z,977.29
2019-05-22T10:49:05.106Z,977.26
2019-05-22T10:50:05.619Z,977.29
2019-05-22T10:51:04.961Z,977.23
2019-05-22T10:52:05.247Z,977.26
2019-05-22T10:53:04.658Z,977.29
2019-05-22T10:54:04.847Z,977.20
2019-05-22T10:55:04.966Z,977.43
2019-05-22T10:56:04.710Z,977.23
2019-05-22T10:57:05.236Z,977.29
2019-05-22T10:58:05.458Z,977.28
2019-05-22T10:59:05.340Z,977.31
2019-05-22T11:00:04.870Z,977.28
2019-05-22T11:01:04.709Z,977.31
2019-05-22T11:02:05.140Z,977.28
2019-05-22T11:03:05.191Z,977.40
2019-05-22T11:04:09.672Z,977.28
2019-05-22T11:05:05.181Z,977.25
2019-05-22T11:06:08.424Z,977.43
2019-05-22T11:07:05.295Z,977.32
2019-05-22T11:08:05.024Z,977.43
2019-05-22T11:09:05.255Z,977.40
2019-05-22T11:10:04.835Z,977.43
2019-05-22T11:11:05.216Z,977.37
2019-05-22T11:12:04.774Z,977.23
2019-05-22T11:13:05.295Z,977.40
2019-05-22T11:14:08.751Z,977.23
2019-05-22T11:15:04.658Z,977.43
2019-05-22T11:16:05.431Z,977.32
2019-05-22T11:17:05.427Z,977.35
2019-05-22T11:18:04.771Z,977.35
2019-05-22T11:19:05.216Z,977.37
2019-05-22T11:20:05.222Z,977.40
2019-05-22T11:21:05.418Z,977.37
2019-05-22T11:22:04.917Z,977.37
2019-05-22T11:23:05.071Z,977.46
2019-05-22T11:24:05.084Z,977.23
2019-05-22T11:25:04.651Z,977.32
2019-05-22T11:26:04.903Z,977.43
2019-05-22T11:27:05.010Z,977.32
2019-05-22T11:28:05.468Z,977.40
2019-05-22T11:29:04.883Z,977.32
2019-05-22T11:30:05.493Z,977.35
2019-05-22T11:31:04.946Z,977.32
2019-05-22T11:32:04.570Z,977.35
2019-05-22T11:33:05.196Z,977.52
2019-05-22T11:34:05.322Z,977.49
2019-05-22T11:35:05.311Z,977.43
2019-05-22T11:36:04.799Z,977.46
2019-05-22T11:37:05.524Z,977.52
2019-05-22T11:38:04.850Z,977.61
2019-05-22T11:39:05.359Z,977.44
2019-05-22T11:40:05.205Z,977.61
2019-05-22T11:41:04.915Z,977.58
2019-05-22T11:42:04.725Z,977.69
2019-05-22T11:43:05.116Z,977.61
2019-05-22T11:44:09.828Z,977.61
2019-05-22T11:45:05.281Z,977.53
2019-05-22T11:46:05.377Z,977.58
2019-05-22T11:47:04.964Z,977.56
2019-05-22T11:48:04.731Z,977.66
2019-05-22T11:49:05.275Z,977.69
2019-05-22T11:50:05.332Z,977.50
2019-05-22T11:51:05.369Z,977.58
2019-05-22T11:52:04.896Z,977.66
2019-05-22T11:53:05.234Z,977.61
2019-05-22T11:54:10.099Z,977.58
2019-05-22T11:55:04.836Z,977.46
2019-05-22T11:56:05.016Z,977.61
2019-05-22T11:57:05.466Z,977.61
2019-05-22T11:58:05.427Z,977.61
2019-05-22T11:59:04.843Z,977.65
2019-05-22T12:00:04.685Z,977.46
2019-05-22T12:01:05.311Z,977.57
2019-05-22T12:02:05.281Z,977.60
2019-05-22T12:03:04.716Z,977.42
2019-05-22T12:04:10.185Z,977.39
2019-05-22T12:05:04.644Z,977.53
2019-05-22T12:06:04.572Z,977.53
2019-05-22T12:07:05.354Z,977.36
2019-05-22T12:08:05.447Z,977.58
2019-05-22T12:09:04.619Z,977.41
2019-05-22T12:10:04.694Z,977.66
2019-05-22T12:11:05.268Z,977.52
2019-05-22T12:12:05.457Z,977.55
2019-05-22T12:13:04.627Z,977.57
2019-05-22T12:14:04.821Z,977.49
2019-05-22T12:15:05.101Z,977.43
2019-05-22T12:16:05.221Z,977.49
2019-05-22T12:17:05.295Z,977.49
2019-05-22T12:18:05.311Z,977.57
2019-05-22T12:19:04.896Z,977.43
2019-05-22T12:20:05.013Z,977.57
2019-05-22T12:21:04.994Z,977.49
2019-05-22T12:22:05.269Z,977.52
2019-05-22T12:23:05.006Z,977.54
2019-05-22T12:24:04.895Z,977.57
2019-05-22T12:25:05.018Z,977.40
2019-05-22T12:26:04.639Z,977.58
2019-05-22T12:27:04.767Z,977.58
2019-05-22T12:28:04.831Z,977.55